Main page
METAR-TAF:

METAR-TAF

Airports :

Baikal International Airport

Ulan-Ude, Russia

latitude: 51-50N, longitude: 107-36E, elevation: 510 m

Current weather observation

The report was made 38 minutes ago, at 14:30 UTC
Wind 14 kt from the Northwest
Temperature 1°C
Humidity 59%
Pressure 1025 hPa
Visibility 10 km or more
Scattered clouds at a height of 2800 ft, Cumulonimbus.

METAR: UIUU 011430Z 31007MPS 9999 SCT028CB 01/M06 Q1025 R26/CLRD60 NOSIG RMK MT OBSC QFE724/0965

Time: 23:08 (15:08 UTC)

Forecast

The report was made 1 hour and 8 minutes ago, at 14:00 UTC
Forecast valid from 01 at 15 UTC to 02 at 15 UTC
Wind 12 kt from the West/Northwest with gusts up to 23 kt
Visibility 10 km or more
Broken clouds at a height of 3000 ft, Cumulonimbus.
Temporary
from 01 at 15 UTC to 02 at 15 UTC
Wind 6 kt from the North with gusts up to 16 kt
Overcast at a height of 1100 ft, Cumulonimbus.

TAF: UIUU 011400Z 0115/0215 30006G12MPS 9999 BKN030CB TEMPO 0115/0215 36003G08MPS OVC011CB

Weather observations and forecasts of more than 4000 airports (METAR and TAF reports).

The available stations are represented by yellow and red dots on the map.

Hover mouse over dot to see the name of the station.

Then click to see weather observations and forecasts.

To change the map : click on the green buttons with a black cross to zoom in, on the green button with a dash to zoom out, or on the green arrows for adjacent maps.


METAR-TAF: